createdAt,value
2023-05-17T00:01:21.744Z,2.50
2023-05-17T00:05:15.196Z,2.30
2023-05-17T00:09:06.981Z,2.60
2023-05-17T00:13:06.332Z,3.10
2023-05-17T00:17:02.150Z,3.10
2023-05-17T00:21:01.462Z,2.80
2023-05-17T00:24:57.027Z,2.80
2023-05-17T00:28:56.424Z,3.70
2023-05-17T00:32:52.097Z,3.50
2023-05-17T00:36:51.414Z,3.20
2023-05-17T00:40:38.374Z,3.60
2023-05-17T00:44:23.323Z,3.90
2023-05-17T00:48:08.615Z,4.10
2023-05-17T00:51:54.082Z,3.70
2023-05-17T00:55:39.182Z,3.80
2023-05-17T00:59:24.295Z,3.70
2023-05-17T01:03:09.620Z,4.10
2023-05-17T01:07:02.829Z,3.70
2023-05-17T01:11:01.764Z,3.90
2023-05-17T01:14:56.865Z,4.20
2023-05-17T01:18:56.282Z,3.50
2023-05-17T01:22:51.924Z,4.50
2023-05-17T01:26:51.109Z,4.00
2023-05-17T01:30:47.044Z,4.20
2023-05-17T01:34:47.055Z,3.10
2023-05-17T01:38:43.577Z,4.10
2023-05-17T01:42:43.825Z,4.00
2023-05-17T01:46:41.780Z,4.20
2023-05-17T01:50:41.863Z,3.30
2023-05-17T01:54:40.396Z,4.50
2023-05-17T01:58:39.984Z,4.50
2023-05-17T02:02:36.691Z,4.30
2023-05-17T02:06:36.919Z,3.70
2023-05-17T02:10:33.344Z,4.70
2023-05-17T02:14:32.890Z,5.10
2023-05-17T02:18:29.660Z,4.80
2023-05-17T02:22:31.068Z,3.90
2023-05-17T02:26:27.626Z,4.20
2023-05-17T02:30:28.921Z,4.80
2023-05-17T02:34:27.177Z,4.80
2023-05-17T02:38:26.976Z,4.50
2023-05-17T02:42:24.130Z,5.20
2023-05-17T02:46:23.946Z,4.80
2023-05-17T02:50:21.160Z,4.70
2023-05-17T02:54:21.053Z,4.70
2023-05-17T02:58:19.393Z,5.50
2023-05-17T03:02:19.162Z,5.60
2023-05-17T03:06:17.076Z,5.00
2023-05-17T03:10:16.313Z,5.70
2023-05-17T03:14:15.350Z,5.70
2023-05-17T03:18:14.729Z,5.20
2023-05-17T03:22:13.279Z,5.30
2023-05-17T03:26:12.917Z,5.20
2023-05-17T03:30:16.299Z,5.60
2023-05-17T03:34:16.999Z,5.70
2023-05-17T03:38:14.505Z,5.90
2023-05-17T03:42:14.139Z,5.90
2023-05-17T03:46:12.042Z,6.00
2023-05-17T03:50:12.188Z,6.10
2023-05-17T03:54:09.905Z,6.40
2023-05-17T03:58:09.172Z,7.40
2023-05-17T04:02:06.890Z,8.80
2023-05-17T04:06:08.221Z,9.60
2023-05-17T04:10:06.652Z,9.80
2023-05-17T04:14:06.132Z,6.80
2023-05-17T04:18:04.234Z,6.60
2023-05-17T04:22:04.174Z,7.40
2023-05-17T04:26:01.971Z,7.10
2023-05-17T04:30:02.343Z,7.10
2023-05-17T04:34:00.336Z,6.80
2023-05-17T04:38:00.052Z,6.50
2023-05-17T04:41:56.633Z,5.80
2023-05-17T04:45:57.233Z,6.30
2023-05-17T04:49:54.994Z,4.40
2023-05-17T04:53:55.140Z,4.50
2023-05-17T04:57:52.029Z,4.10
2023-05-17T05:01:52.262Z,5.10
2023-05-17T05:05:48.829Z,4.20
2023-05-17T05:09:48.091Z,4.60
2023-05-17T05:13:46.168Z,4.60
2023-05-17T05:17:46.437Z,4.50
2023-05-17T05:21:43.929Z,4.50
2023-05-17T05:25:44.300Z,5.20
2023-05-17T05:29:42.241Z,5.40
2023-05-17T05:33:29.245Z,5.70
2023-05-17T05:37:16.201Z,5.70
2023-05-17T05:41:03.293Z,5.90
2023-05-17T05:44:48.614Z,5.40
2023-05-17T05:48:34.613Z,5.80
2023-05-17T05:52:19.871Z,5.30
2023-05-17T05:56:05.412Z,4.90
2023-05-17T05:59:50.240Z,5.30
2023-05-17T06:03:35.281Z,5.60
2023-05-17T06:07:26.868Z,4.40
2023-05-17T06:11:18.533Z,4.60
2023-05-17T06:15:20.878Z,4.80
2023-05-17T06:19:20.380Z,4.70
2023-05-17T06:23:18.128Z,5.10
2023-05-17T06:27:17.402Z,5.50
2023-05-17T06:31:12.466Z,5.60
2023-05-17T06:35:11.480Z,5.30
2023-05-17T06:39:06.723Z,4.40
2023-05-17T06:43:06.369Z,4.40
2023-05-17T06:47:01.892Z,4.00
2023-05-17T06:50:47.061Z,4.10
2023-05-17T06:54:32.050Z,3.90
2023-05-17T06:58:17.184Z,3.90
2023-05-17T07:02:02.441Z,4.00
2023-05-17T07:05:59.778Z,3.90
2023-05-17T07:10:01.348Z,4.10
2023-05-17T07:13:59.501Z,3.60
2023-05-17T07:18:01.343Z,3.70
2023-05-17T07:21:59.598Z,3.80
2023-05-17T07:25:58.946Z,3.90
2023-05-17T07:29:57.449Z,3.70
2023-05-17T07:33:56.708Z,4.50
2023-05-17T07:37:55.417Z,3.90
2023-05-17T07:41:57.182Z,4.40
2023-05-17T07:45:54.759Z,4.40
2023-05-17T07:49:56.322Z,4.40
2023-05-17T07:53:51.589Z,5.20
2023-05-17T07:57:51.624Z,4.50
2023-05-17T08:01:50.769Z,4.90
2023-05-17T08:05:49.381Z,5.20
2023-05-17T08:09:54.495Z,5.60
2023-05-17T08:13:49.634Z,5.10
2023-05-17T08:17:51.553Z,5.50
2023-05-17T08:21:46.640Z,4.90
2023-05-17T08:25:48.412Z,5.30
2023-05-17T08:29:47.501Z,5.30
2023-05-17T08:33:47.243Z,5.30
2023-05-17T08:37:44.856Z,5.40
2023-05-17T08:41:38.460Z,5.50
2023-05-17T08:45:33.836Z,5.10
2023-05-17T08:49:27.517Z,4.80
2023-05-17T08:53:23.800Z,4.90
2023-05-17T08:57:17.506Z,4.90
2023-05-17T09:01:12.791Z,6.20
2023-05-17T09:05:12.358Z,5.80
2023-05-17T09:09:07.657Z,5.00
2023-05-17T09:13:07.202Z,5.90
2023-05-17T09:16:58.803Z,5.40
2023-05-17T09:20:57.886Z,6.40
2023-05-17T09:24:49.739Z,5.70
2023-05-17T09:28:48.995Z,5.70
2023-05-17T09:32:44.752Z,5.30
2023-05-17T09:36:43.932Z,4.80
2023-05-17T09:40:39.695Z,4.90
2023-05-17T09:44:38.583Z,4.80
2023-05-17T09:48:34.603Z,4.30
2023-05-17T09:52:33.809Z,3.80
2023-05-17T09:56:28.952Z,3.90
2023-05-17T10:00:26.167Z,4.00
2023-05-17T10:04:21.810Z,4.50
2023-05-17T10:08:21.372Z,3.90
2023-05-17T10:12:16.916Z,3.60
2023-05-17T10:16:16.259Z,4.00
2023-05-17T10:20:12.124Z,4.20
2023-05-17T10:24:11.578Z,4.40
2023-05-17T10:28:07.057Z,3.70
2023-05-17T10:32:06.470Z,3.70
2023-05-17T10:35:59.488Z,3.60
2023-05-17T10:39:59.046Z,3.60
2023-05-17T10:43:54.738Z,3.20
2023-05-17T10:47:54.108Z,3.10
2023-05-17T10:51:49.719Z,3.20
2023-05-17T10:55:48.965Z,3.10
2023-05-17T10:59:44.993Z,3.60
2023-05-17T11:03:44.841Z,3.90
2023-05-17T11:07:44.771Z,3.70
2023-05-17T11:11:46.397Z,3.50
2023-05-17T11:15:44.982Z,3.40
2023-05-17T11:19:46.635Z,3.00
2023-05-17T11:23:44.815Z,3.20
2023-05-17T11:27:46.311Z,3.60
2023-05-17T11:31:43.861Z,3.20
2023-05-17T11:35:45.362Z,2.70
2023-05-17T11:39:43.825Z,3.00
2023-05-17T11:43:45.978Z,2.60
2023-05-17T11:47:43.897Z,2.70
2023-05-17T11:51:44.983Z,2.50
2023-05-17T11:55:42.786Z,2.70
2023-05-17T11:59:44.529Z,2.70
2023-05-17T12:03:42.926Z,2.10
2023-05-17T12:07:44.387Z,2.30
2023-05-17T12:11:42.957Z,2.40
2023-05-17T12:15:44.500Z,2.20
2023-05-17T12:19:42.984Z,1.80
2023-05-17T12:23:44.379Z,2.30
2023-05-17T12:27:41.938Z,2.30
2023-05-17T12:31:42.893Z,2.20
2023-05-17T12:35:40.954Z,2.10
2023-05-17T12:39:42.717Z,2.10
2023-05-17T12:43:40.852Z,2.30
2023-05-17T12:47:42.757Z,2.20
2023-05-17T12:51:40.971Z,1.90
2023-05-17T12:55:42.452Z,2.00
2023-05-17T12:59:41.048Z,1.90
2023-05-17T13:03:42.293Z,1.80
2023-05-17T13:07:41.069Z,2.00
2023-05-17T13:11:43.017Z,2.00
2023-05-17T13:15:41.014Z,1.90
2023-05-17T13:19:42.745Z,2.00
2023-05-17T13:23:41.129Z,1.80
2023-05-17T13:27:42.471Z,1.80
2023-05-17T13:31:41.026Z,2.10
2023-05-17T13:35:42.617Z,1.60
2023-05-17T13:39:40.875Z,1.60
2023-05-17T13:43:42.693Z,1.90
2023-05-17T13:47:35.980Z,2.30
2023-05-17T13:51:37.756Z,2.00
2023-05-17T13:55:31.060Z,2.20
2023-05-17T13:59:32.770Z,2.20
2023-05-17T14:03:31.282Z,1.80
2023-05-17T14:07:32.631Z,2.20
2023-05-17T14:11:31.314Z,2.10
2023-05-17T14:15:32.723Z,2.10
2023-05-17T14:19:31.162Z,2.20
2023-05-17T14:23:32.697Z,1.90
2023-05-17T14:27:31.614Z,2.00
2023-05-17T14:31:33.657Z,1.90
2023-05-17T14:35:32.140Z,2.20
2023-05-17T14:39:31.775Z,2.40
2023-05-17T14:43:29.257Z,2.30
2023-05-17T14:47:28.791Z,1.90
2023-05-17T14:51:26.509Z,2.00
2023-05-17T14:55:26.840Z,2.20
2023-05-17T14:59:24.528Z,2.30
2023-05-17T15:03:24.724Z,1.90
2023-05-17T15:07:28.644Z,2.30
2023-05-17T15:11:28.307Z,2.30
2023-05-17T15:15:29.333Z,2.10
2023-05-17T15:19:28.456Z,2.00
2023-05-17T15:23:30.210Z,2.80
2023-05-17T15:27:29.366Z,2.40
2023-05-17T15:31:30.848Z,2.70
2023-05-17T15:35:29.604Z,2.70
2023-05-17T15:39:31.288Z,2.50
2023-05-17T15:43:29.319Z,2.30
2023-05-17T15:47:42.356Z,2.70
2023-05-17T15:51:41.311Z,2.90
2023-05-17T15:55:42.837Z,2.90
2023-05-17T15:59:41.256Z,2.90
2023-05-17T16:03:39.298Z,2.80
2023-05-17T16:07:41.045Z,2.90
2023-05-17T16:11:39.483Z,2.30
2023-05-17T16:15:40.424Z,2.60
2023-05-17T16:19:38.483Z,2.80
2023-05-17T16:23:39.952Z,2.80
2023-05-17T16:27:38.329Z,3.10
2023-05-17T16:31:39.990Z,3.50
2023-05-17T16:35:38.360Z,3.30
2023-05-17T16:39:39.952Z,3.20
2023-05-17T16:43:39.925Z,2.50
2023-05-17T16:47:42.057Z,2.60
2023-05-17T16:51:41.918Z,2.80
2023-05-17T16:55:43.462Z,2.40
2023-05-17T16:59:40.438Z,2.50
2023-05-17T17:03:40.629Z,2.50
2023-05-17T17:07:37.789Z,2.50
2023-05-17T17:11:33.648Z,2.30
2023-05-17T17:15:29.593Z,2.30
2023-05-17T17:19:27.294Z,1.90
2023-05-17T17:23:24.664Z,2.20
2023-05-17T17:27:23.725Z,2.20
2023-05-17T17:31:19.536Z,2.70
2023-05-17T17:35:18.565Z,3.10
2023-05-17T17:39:13.574Z,3.00
2023-05-17T17:43:12.854Z,3.00
2023-05-17T17:47:08.875Z,3.10
2023-05-17T17:51:04.681Z,2.90
2023-05-17T17:55:03.757Z,2.90
2023-05-17T17:58:59.887Z,3.20
2023-05-17T18:02:59.440Z,4.00
2023-05-17T18:06:54.993Z,3.50
2023-05-17T18:10:50.620Z,3.10
2023-05-17T18:14:45.842Z,3.00
2023-05-17T18:18:41.529Z,3.10
2023-05-17T18:22:38.779Z,3.00
2023-05-17T18:26:35.785Z,3.60
2023-05-17T18:30:35.397Z,3.00
2023-05-17T18:34:30.707Z,3.10
2023-05-17T18:38:29.722Z,4.60
2023-05-17T18:42:28.689Z,4.20
2023-05-17T18:46:23.796Z,4.80
2023-05-17T18:50:22.875Z,4.00
2023-05-17T18:54:18.871Z,4.60
2023-05-17T18:58:15.282Z,4.80
2023-05-17T19:02:14.308Z,4.80
2023-05-17T19:06:09.643Z,4.80
2023-05-17T19:10:09.022Z,4.90
2023-05-17T19:14:08.268Z,5.10
2023-05-17T19:18:09.241Z,5.10
2023-05-17T19:22:04.729Z,4.50
2023-05-17T19:26:04.652Z,4.60
2023-05-17T19:29:59.892Z,4.50
2023-05-17T19:34:03.233Z,3.80
2023-05-17T19:37:58.896Z,5.60
2023-05-17T19:41:58.049Z,5.10
2023-05-17T19:45:54.198Z,4.90
2023-05-17T19:49:53.436Z,5.50
2023-05-17T19:53:54.382Z,4.60
2023-05-17T19:57:50.962Z,7.30
2023-05-17T20:01:53.380Z,6.80
2023-05-17T20:05:49.266Z,5.10
2023-05-17T20:09:53.381Z,7.10
2023-05-17T20:13:49.465Z,5.30
2023-05-17T20:17:50.900Z,6.20
2023-05-17T20:21:50.436Z,9.20
2023-05-17T20:25:55.431Z,9.80
2023-05-17T20:29:51.023Z,6.70
2023-05-17T20:33:48.222Z,6.50
2023-05-17T20:37:47.679Z,8.80
2023-05-17T20:41:46.948Z,17.40
2023-05-17T20:45:42.009Z,43.90
2023-05-17T20:49:41.515Z,52.40
2023-05-17T20:53:37.032Z,19.90
2023-05-17T20:57:34.105Z,8.90
2023-05-17T21:01:27.477Z,6.60
2023-05-17T21:05:30.590Z,17.20
2023-05-17T21:09:25.937Z,30.10
2023-05-17T21:13:25.055Z,26.40
2023-05-17T21:17:21.112Z,12.20
2023-05-17T21:21:20.689Z,11.60
2023-05-17T21:25:16.330Z,9.10
2023-05-17T21:29:13.322Z,7.60
2023-05-17T21:33:13.678Z,8.30
2023-05-17T21:37:13.041Z,6.80
2023-05-17T21:41:10.065Z,6.00
2023-05-17T21:45:06.220Z,7.10
2023-05-17T21:49:06.366Z,12.10
2023-05-17T21:53:05.545Z,10.00
2023-05-17T21:56:58.484Z,9.20
2023-05-17T22:01:01.785Z,6.50
2023-05-17T22:04:57.310Z,7.00
2023-05-17T22:08:56.958Z,6.70
2023-05-17T22:12:52.131Z,5.70
2023-05-17T22:16:51.192Z,8.30
2023-05-17T22:20:47.373Z,12.80
2023-05-17T22:24:44.577Z,9.50
2023-05-17T22:28:44.674Z,7.60
2023-05-17T22:32:43.522Z,7.40
2023-05-17T22:36:39.155Z,7.30
2023-05-17T22:40:38.628Z,6.70
2023-05-17T22:44:34.247Z,7.10
2023-05-17T22:48:33.352Z,9.80
2023-05-17T22:52:26.538Z,8.30
2023-05-17T22:56:29.704Z,6.30
2023-05-17T23:00:25.471Z,7.10
2023-05-17T23:04:21.278Z,14.00
2023-05-17T23:08:20.248Z,9.30
2023-05-17T23:12:22.006Z,6.20
2023-05-17T23:16:17.194Z,5.50
2023-05-17T23:20:06.359Z,5.70
2023-05-17T23:23:55.019Z,7.10
2023-05-17T23:27:41.497Z,7.50
2023-05-17T23:31:30.461Z,7.50
2023-05-17T23:35:15.428Z,6.10
2023-05-17T23:39:00.625Z,5.90
2023-05-17T23:42:45.869Z,6.50
2023-05-17T23:46:30.827Z,8.10
2023-05-17T23:50:16.019Z,7.00
2023-05-17T23:54:01.144Z,7.20
2023-05-17T23:57:46.420Z,6.40
